Macondo — 3EYB9 — position and weather

sailwx.info

Track history (hours):
 
Tides and Currents Weather Stations Pressure Air Temp Water Temp Dewpoint Dewpoint Depression Visibility Wind Speed Wind Dir Waves Ship Positions

Macondo

Last reported at 2016-Jul-26 05:24 UTC. Time now 2016-Aug-26 01:33 UTC.
Position N 29°45' W 090°01'.
Warning: this ship's position is 30 days out of date.

Length 120 m; draft 7.2 m.

Type: Cargo ship. MMSI: 371293000.

Date/timePositionNaut miles runAvg speedWind from/ knotsBaromVisibWave heightAir tempDewpointWater temp
2016-Jul-26 05:24N 29°45' W 090°01'8 9.6
2016-Jul-26 04:33N 29°52' W 089°56'7 7.5
2016-Jul-26 03:33N 29°57' W 090°02'6 6.3
2016-Jul-26 02:33N 29°57' W 090°09'  
2016-Jul-23 18:30N 29°56' W 090°13'5 5.5
2016-Jul-23 17:33N 29°55' W 090°07'6 6.2
2016-Jul-23 16:33N 29°56' W 090°00'1 0.6
2016-Jul-23 15:33N 29°56' W 089°60'0 0.0
2016-Jul-23 14:33N 29°56' W 089°60'0 0.0
2016-Jul-23 13:33N 29°56' W 089°60'0 0.0
2016-Jul-23 12:33N 29°56' W 089°60'0 0.0
2016-Jul-23 11:33N 29°56' W 089°60'0 0.0
2016-Jul-23 10:33N 29°56' W 089°60'0 0.0
2016-Jul-23 09:33N 29°56' W 089°60'0 0.0
2016-Jul-23 08:33N 29°56' W 089°60'0 0.0
2016-Jul-23 07:33N 29°56' W 089°60'0 0.0
2016-Jul-23 06:33N 29°56' W 089°60'0 0.0
2016-Jul-23 04:33N 29°56' W 089°60'0 0.0
2016-Jul-23 03:33N 29°56' W 089°60'0 0.0
2016-Jul-23 02:33N 29°56' W 089°60'0 0.0
2016-Jul-23 01:33N 29°56' W 089°60'0 0.0
2016-Jul-23 00:33N 29°56' W 089°60'0 0.0
2016-Jul-22 23:33N 29°56' W 089°60'0 0.0
2016-Jul-22 22:33N 29°56' W 089°60'0 0.0
2016-Jul-22 21:33N 29°56' W 089°60'0 0.0
2016-Jul-22 20:33N 29°56' W 089°60'0 0.0
2016-Jul-22 19:33N 29°56' W 089°60'0 0.0
2016-Jul-22 18:33N 29°56' W 089°60'0 0.0
2016-Jul-22 17:33N 29°56' W 089°60'0 0.0
2016-Jul-22 16:33N 29°56' W 089°60'0 0.0
2016-Jul-22 15:33N 29°56' W 089°60'3 3.1
2016-Jul-22 14:33N 29°55' W 089°56'4 3.8
2016-Jul-22 13:33N 29°52' W 089°58'8 7.4
2016-Jul-22 12:28N 29°44' W 089°60'  
Track history (hours):
 
Tides and Currents Weather Stations Pressure Air Temp Water Temp Dewpoint Dewpoint Depression Visibility Wind Speed Wind Dir Waves Ship Positions

Macondo

Last reported at 2016-Jul-26 05:24 UTC. Time now 2016-Aug-26 01:33 UTC.
Position N 29°45' W 090°01'.
Warning: this ship's position is 30 days out of date.

Length 120 m; draft 7.2 m.

Type: Cargo ship. MMSI: 371293000.

Date/timePositionNaut miles runAvg speedWind from/ knotsBaromVisibWave heightAir tempDewpointWater temp
2016-Jul-26 05:24N 29°45' W 090°01'8 9.6
2016-Jul-26 04:33N 29°52' W 089°56'7 7.5
2016-Jul-26 03:33N 29°57' W 090°02'6 6.3
2016-Jul-26 02:33N 29°57' W 090°09'  
2016-Jul-23 18:30N 29°56' W 090°13'5 5.5
2016-Jul-23 17:33N 29°55' W 090°07'6 6.2
2016-Jul-23 16:33N 29°56' W 090°00'1 0.6
2016-Jul-23 15:33N 29°56' W 089°60'0 0.0
2016-Jul-23 14:33N 29°56' W 089°60'0 0.0
2016-Jul-23 13:33N 29°56' W 089°60'0 0.0
2016-Jul-23 12:33N 29°56' W 089°60'0 0.0
2016-Jul-23 11:33N 29°56' W 089°60'0 0.0
2016-Jul-23 10:33N 29°56' W 089°60'0 0.0
2016-Jul-23 09:33N 29°56' W 089°60'0 0.0
2016-Jul-23 08:33N 29°56' W 089°60'0 0.0
2016-Jul-23 07:33N 29°56' W 089°60'0 0.0
2016-Jul-23 06:33N 29°56' W 089°60'0 0.0
2016-Jul-23 04:33N 29°56' W 089°60'0 0.0
2016-Jul-23 03:33N 29°56' W 089°60'0 0.0
2016-Jul-23 02:33N 29°56' W 089°60'0 0.0
2016-Jul-23 01:33N 29°56' W 089°60'0 0.0
2016-Jul-23 00:33N 29°56' W 089°60'0 0.0
2016-Jul-22 23:33N 29°56' W 089°60'0 0.0
2016-Jul-22 22:33N 29°56' W 089°60'0 0.0
2016-Jul-22 21:33N 29°56' W 089°60'0 0.0
2016-Jul-22 20:33N 29°56' W 089°60'0 0.0
2016-Jul-22 19:33N 29°56' W 089°60'0 0.0
2016-Jul-22 18:33N 29°56' W 089°60'0 0.0
2016-Jul-22 17:33N 29°56' W 089°60'0 0.0
2016-Jul-22 16:33N 29°56' W 089°60'0 0.0
2016-Jul-22 15:33N 29°56' W 089°60'3 3.1
2016-Jul-22 14:33N 29°55' W 089°56'4 3.8
2016-Jul-22 13:33N 29°52' W 089°58'8 7.4
2016-Jul-22 12:28N 29°44' W 089°60'  

Dump ship's entire track history